Time;durP1;ratioP1;P1;durP2;ratioP2;P2;SDS_P1;SDS_P2;PMS_P1;PMS_P2;Temp;Humidity;BMP_temperature;BMP_pressure;BME280_temperature;BME280_humidity;BME280_pressure;Samples;Min_cycle;Max_cycle;Signal;HPM_P1;HPM_P2
2023/04/30 00:02:20;;;;;;;12.75;6.18;;;;;;;7.71;100.00;102196.63;5014847;28;20041;-59
2023/04/30 00:04:48;;;;;;;12.90;7.00;;;;;;;7.70;100.00;102200.16;5013104;28;20046;-59
2023/04/30 00:07:19;;;;;;;11.93;6.85;;;;;;;7.70;100.00;102205.38;5014768;28;20405;-60
2023/04/30 00:09:47;;;;;;;12.43;6.90;;;;;;;7.65;100.00;102208.16;5033285;28;20501;-59
2023/04/30 00:12:15;;;;;;;13.15;7.25;;;;;;;7.64;100.00;102208.22;5032137;28;20052;-59
2023/04/30 00:14:43;;;;;;;12.68;6.43;;;;;;;7.66;100.00;102211.63;5032852;28;20132;-59
2023/04/30 00:17:13;;;;;;;12.32;6.80;;;;;;;7.69;100.00;102219.38;5031644;28;20045;-59
2023/04/30 00:19:43;;;;;;;13.85;6.93;;;;;;;7.67;100.00;102222.06;5032259;28;20602;-59
2023/04/30 00:22:12;;;;;;;13.73;7.10;;;;;;;7.57;100.00;102216.25;5032819;28;20037;-60
2023/04/30 00:24:42;;;;;;;11.43;6.90;;;;;;;7.51;100.00;102219.06;5032943;28;20041;-59
2023/04/30 00:27:10;;;;;;;14.30;7.70;;;;;;;7.47;100.00;102220.03;5032701;28;20054;-59
2023/04/30 00:29:38;;;;;;;12.30;7.55;;;;;;;7.50;100.00;102219.97;5022298;28;20100;-52
2023/04/30 00:32:06;;;;;;;13.98;7.80;;;;;;;7.51;100.00;102211.22;5033384;28;20128;-53
2023/04/30 00:34:36;;;;;;;14.13;6.78;;;;;;;7.48;100.00;102213.06;5033188;28;20091;-54
2023/04/30 00:37:04;;;;;;;14.13;6.90;;;;;;;7.47;100.00;102209.56;5033139;28;20041;-51
2023/04/30 00:39:32;;;;;;;13.18;7.38;;;;;;;7.42;100.00;102216.72;5030392;28;20049;-53
2023/04/30 00:42:01;;;;;;;11.88;6.80;;;;;;;7.38;100.00;102215.09;5033247;28;20118;-53
2023/04/30 00:44:29;;;;;;;12.40;7.05;;;;;;;7.33;100.00;102215.22;5033278;28;20103;-53
2023/04/30 00:46:57;;;;;;;13.10;7.18;;;;;;;7.31;100.00;102216.16;5033664;28;20503;-53
2023/04/30 00:49:25;;;;;;;11.00;7.13;;;;;;;7.30;100.00;102217.09;5027851;28;20045;-53
2023/04/30 00:51:55;;;;;;;12.13;6.90;;;;;;;7.29;100.00;102216.22;5030372;28;20053;-52
2023/04/30 00:54:25;;;;;;;14.02;8.10;;;;;;;7.25;100.00;102215.47;5033556;28;20072;-59
2023/04/30 00:56:53;;;;;;;12.63;7.95;;;;;;;7.30;100.00;102214.47;5033507;28;20045;-60
2023/04/30 00:59:24;;;;;;;13.88;6.97;;;;;;;7.37;100.00;102218.63;5026963;28;20042;-59
2023/04/30 01:01:53;;;;;;;11.40;6.78;;;;;;;7.31;100.00;102222.28;5012150;28;20042;-58
2023/04/30 01:04:22;;;;;;;11.35;7.32;;;;;;;7.25;100.00;102225.06;5011658;28;20636;-58
2023/04/30 01:06:50;;;;;;;12.27;7.78;;;;;;;7.18;100.00;102216.53;5011609;28;20049;-58
2023/04/30 01:09:20;;;;;;;13.77;7.60;;;;;;;7.15;100.00;102227.09;5017345;28;20140;-59
2023/04/30 01:11:56;;;;;;;12.88;7.10;;;;;;;7.08;100.00;102223.78;5032441;28;20056;-59
2023/04/30 01:14:30;;;;;;;16.13;8.02;;;;;;;7.07;100.00;102222.06;5031660;28;20053;-59
2023/04/30 01:17:05;;;;;;;11.40;6.95;;;;;;;7.06;100.00;102217.75;5031369;28;20049;-59
2023/04/30 01:19:40;;;;;;;12.20;7.35;;;;;;;7.05;100.00;102220.41;5030347;28;20111;-59
2023/04/30 01:22:14;;;;;;;12.63;7.30;;;;;;;6.97;100.00;102215.38;5015288;28;20500;-59
2023/04/30 01:25:09;;;;;;;14.52;8.90;;;;;;;6.97;100.00;102224.97;5013450;28;20045;-53
2023/04/30 01:28:01;;;;;;;15.32;7.82;;;;;;;6.94;100.00;102221.56;5010549;28;20516;-52
2023/04/30 01:30:31;;;;;;;16.85;7.72;;;;;;;6.98;100.00;102221.47;5009509;28;20042;-53
2023/04/30 01:33:00;;;;;;;14.02;6.90;;;;;;;7.01;100.00;102218.75;5010134;28;20442;-53
2023/04/30 01:35:44;;;;;;;12.68;7.10;;;;;;;6.98;100.00;102219.72;5008264;28;20049;-51
2023/04/30 01:38:25;;;;;;;13.85;7.13;;;;;;;7.00;100.00;102224.91;5008322;28;20050;-53
2023/04/30 01:40:57;;;;;;;13.70;6.82;;;;;;;6.93;100.00;102219.84;5009871;28;20061;-54
2023/04/30 01:43:38;;;;;;;12.45;6.97;;;;;;;6.93;100.00;102208.53;5022720;28;20045;-52
2023/04/30 01:46:15;;;;;;;11.75;6.70;;;;;;;6.93;100.00;102214.59;5028902;28;20046;-52
2023/04/30 01:48:49;;;;;;;13.38;6.85;;;;;;;6.86;100.00;102212.22;5031463;28;20045;-53
2023/04/30 01:51:24;;;;;;;14.13;6.85;;;;;;;6.84;100.00;102211.41;5017627;28;20513;-52
2023/04/30 01:53:57;;;;;;;10.90;6.50;;;;;;;6.93;100.00;102222.47;5009633;28;20120;-50
2023/04/30 01:56:31;;;;;;;12.32;7.13;;;;;;;6.85;100.00;102219.19;5011258;28;20133;-54
2023/04/30 01:59:01;;;;;;;14.77;7.57;;;;;;;6.85;100.00;102218.34;5012633;28;20096;-51
2023/04/30 02:01:31;;;;;;;10.95;6.60;;;;;;;6.90;100.00;102222.56;5017021;28;20488;-52
2023/04/30 02:03:59;;;;;;;11.30;6.75;;;;;;;6.82;100.00;102227.13;5016015;28;20128;-52
2023/04/30 02:06:31;;;;;;;12.48;7.22;;;;;;;6.80;100.00;102235.91;5008217;28;20133;-53
2023/04/30 02:09:04;;;;;;;13.43;7.75;;;;;;;6.68;100.00;102234.47;5011358;28;20046;-52
2023/04/30 02:11:32;;;;;;;12.45;7.40;;;;;;;6.58;100.00;102229.50;5017963;28;20535;-53
2023/04/30 02:14:01;;;;;;;15.60;8.40;;;;;;;6.51;100.00;102234.94;5031634;28;20057;-52
2023/04/30 02:16:29;;;;;;;13.55;7.93;;;;;;;6.51;100.00;102227.09;5032328;28;20053;-52
2023/04/30 02:18:58;;;;;;;13.85;8.60;;;;;;;6.50;100.00;102236.66;5032461;28;20053;-54
2023/04/30 02:21:27;;;;;;;13.25;7.93;;;;;;;6.51;100.00;102232.31;5028186;28;20057;-51
2023/04/30 02:23:55;;;;;;;14.13;7.93;;;;;;;6.46;100.00;102236.81;5029072;28;20561;-52
2023/04/30 02:26:23;;;;;;;13.20;7.88;;;;;;;6.43;100.00;102240.34;5032270;28;20045;-50
2023/04/30 02:28:51;;;;;;;14.65;8.30;;;;;;;6.41;100.00;102244.78;5031108;28;20046;-51
2023/04/30 02:31:20;;;;;;;14.75;8.48;;;;;;;6.33;100.00;102242.34;5027521;28;20587;-53
2023/04/30 02:33:49;;;;;;;13.40;8.10;;;;;;;6.31;100.00;102238.91;5020381;28;20045;-54
2023/04/30 02:36:17;;;;;;;14.85;9.10;;;;;;;6.27;100.00;102239.88;5033434;28;20530;-51
2023/04/30 02:38:45;;;;;;;15.57;9.60;;;;;;;6.25;100.00;102242.53;5035121;28;20057;-52
2023/04/30 02:41:13;;;;;;;15.57;8.90;;;;;;;6.23;100.00;102239.09;5035625;28;20504;-53
2023/04/30 02:43:41;;;;;;;15.95;9.23;;;;;;;6.21;100.00;102240.88;5029499;28;20104;-54
2023/04/30 02:46:09;;;;;;;16.20;8.93;;;;;;;6.19;100.00;102231.38;5015574;28;20042;-54
2023/04/30 02:48:39;;;;;;;15.30;9.43;;;;;;;6.18;100.00;102234.91;5013649;28;20042;-54
2023/04/30 02:51:07;;;;;;;13.25;8.30;;;;;;;6.16;100.00;102229.72;5011515;28;20046;-50
2023/04/30 02:53:35;;;;;;;14.73;8.65;;;;;;;6.15;100.00;102232.34;5017964;28;20049;-54
2023/04/30 02:56:03;;;;;;;14.10;8.13;;;;;;;6.15;100.00;102229.72;5034607;28;20075;-52
2023/04/30 02:58:31;;;;;;;13.45;8.27;;;;;;;6.17;100.00;102230.56;5034875;28;20046;-51
2023/04/30 03:00:59;;;;;;;12.70;7.90;;;;;;;6.18;100.00;102230.50;5033545;28;20555;-52
2023/04/30 03:03:27;;;;;;;14.25;8.65;;;;;;;6.17;100.00;102233.16;5031686;28;20041;-53
2023/04/30 03:05:59;;;;;;;13.50;8.25;;;;;;;6.15;100.00;102230.59;5021255;28;20081;-51
2023/04/30 03:08:27;;;;;;;16.00;8.82;;;;;;;6.08;100.00;102219.44;5015017;28;20054;-51
2023/04/30 03:10:56;;;;;;;14.32;8.45;;;;;;;6.09;100.00;102225.50;5012635;28;20471;-54
2023/04/30 03:13:25;;;;;;;13.75;9.02;;;;;;;6.07;100.00;102217.72;5014383;28;20045;-53
2023/04/30 03:15:58;;;;;;;15.45;8.18;;;;;;;6.09;100.00;102217.66;5012835;28;20041;-53
2023/04/30 03:18:29;;;;;;;14.18;8.73;;;;;;;6.12;100.00;102214.97;5011469;28;20053;-52
2023/04/30 03:20:58;;;;;;;13.95;9.20;;;;;;;6.07;100.00;102211.66;5010540;28;20432;-53
2023/04/30 03:23:27;;;;;;;13.05;8.25;;;;;;;6.05;100.00;102218.66;5011962;28;20111;-53
2023/04/30 03:25:56;;;;;;;16.80;9.60;;;;;;;6.08;100.00;102216.81;5012317;28;20452;-51
2023/04/30 03:28:24;;;;;;;12.70;8.07;;;;;;;6.07;100.00;102222.94;5012505;28;20564;-53
2023/04/30 03:30:52;;;;;;;13.70;8.55;;;;;;;6.16;100.00;102221.00;5013140;28;20104;-53
2023/04/30 03:33:20;;;;;;;16.67;9.23;;;;;;;6.10;100.00;102222.00;5022511;28;20160;-53
2023/04/30 03:35:49;;;;;;;14.00;7.85;;;;;;;6.07;100.00;102222.94;5013528;28;20129;-53
2023/04/30 03:38:18;;;;;;;14.13;8.65;;;;;;;6.07;100.00;102211.66;5013217;28;20385;-52
2023/04/30 03:40:48;;;;;;;14.30;8.75;;;;;;;6.06;100.00;102215.16;5011586;28;20073;-51
2023/04/30 03:43:19;;;;;;;13.20;9.15;;;;;;;6.05;100.00;102218.66;5023916;28;20116;-51
2023/04/30 03:45:47;;;;;;;14.82;8.80;;;;;;;6.11;100.00;102222.84;5030818;28;20053;-53
2023/04/30 03:48:15;;;;;;;15.35;9.02;;;;;;;6.04;100.00;102216.91;5032389;28;20492;-51
2023/04/30 03:50:45;;;;;;;17.00;9.32;;;;;;;6.02;100.00;102216.13;5032413;28;20124;-54
2023/04/30 03:53:13;;;;;;;13.88;8.27;;;;;;;5.97;100.00;102218.81;5030339;28;20044;-51
2023/04/30 03:55:42;;;;;;;15.82;8.63;;;;;;;5.92;100.00;102216.28;5014139;28;20042;-58
2023/04/30 03:58:11;;;;;;;15.82;9.07;;;;;;;5.83;100.00;102218.28;5013358;28;20085;-59
2023/04/30 04:00:40;;;;;;;17.00;9.25;;;;;;;5.85;100.00;102217.34;5012826;28;20128;-59
2023/04/30 04:03:08;;;;;;;14.77;9.02;;;;;;;5.88;100.00;102217.25;5016415;28;20532;-58
2023/04/30 04:05:36;;;;;;;16.77;8.65;;;;;;;5.85;100.00;102206.91;5031973;28;20070;-59
2023/04/30 04:08:05;;;;;;;14.98;7.78;;;;;;;5.82;100.00;102209.59;5033144;28;20524;-59
2023/04/30 04:10:34;;;;;;;14.20;8.13;;;;;;;5.75;100.00;102211.47;5032739;28;20049;-59
2023/04/30 04:13:04;;;;;;;18.25;8.32;;;;;;;5.72;100.00;102215.91;5028238;28;20057;-59
2023/04/30 04:15:32;;;;;;;12.20;7.80;;;;;;;5.70;100.00;102215.94;5013183;28;20044;-58
2023/04/30 04:18:00;;;;;;;13.38;8.63;;;;;;;5.67;100.00;102213.41;5013241;28;20422;-59
2023/04/30 04:20:28;;;;;;;14.10;8.57;;;;;;;5.74;100.00;102214.97;5011459;28;20050;-58
2023/04/30 04:22:57;;;;;;;14.77;8.35;;;;;;;5.71;100.00;102215.06;5021998;28;20052;-58
2023/04/30 04:25:26;;;;;;;13.57;8.27;;;;;;;5.70;100.00;102213.34;5033190;28;20053;-59
2023/04/30 04:27:54;;;;;;;14.90;8.52;;;;;;;5.73;100.00;102215.03;5032302;28;20523;-59
2023/04/30 04:30:24;;;;;;;12.90;8.35;;;;;;;5.71;100.00;102219.41;5033093;28;20047;-58
2023/04/30 04:32:52;;;;;;;13.93;8.43;;;;;;;5.68;100.00;102225.53;5031942;28;20476;-58
2023/04/30 04:35:21;;;;;;;15.43;8.60;;;;;;;5.66;100.00;102221.25;5031267;28;20045;-59
2023/04/30 04:37:49;;;;;;;14.38;8.40;;;;;;;5.66;100.00;102221.25;5033791;28;20076;-58
2023/04/30 04:40:17;;;;;;;16.38;9.20;;;;;;;5.75;100.00;102227.16;5032407;28;20053;-59
2023/04/30 04:42:45;;;;;;;15.07;8.73;;;;;;;5.69;100.00;102221.19;5026407;28;20042;-58
2023/04/30 04:45:15;;;;;;;14.45;8.38;;;;;;;5.64;100.00;102228.28;5013908;28;20038;-58
2023/04/30 04:47:44;;;;;;;15.55;8.68;;;;;;;5.62;100.00;102224.81;5014038;28;20042;-57
2023/04/30 04:50:15;;;;;;;14.70;9.02;;;;;;;5.65;100.00;102224.78;5013401;28;20053;-59
2023/04/30 04:52:43;;;;;;;15.40;9.45;;;;;;;5.67;100.00;102223.84;5018217;28;20115;-58
2023/04/30 04:55:12;;;;;;;18.95;8.93;;;;;;;5.68;100.00;102230.75;5032016;28;20100;-59
2023/04/30 04:57:41;;;;;;;14.25;8.40;;;;;;;5.68;100.00;102225.53;5030920;28;20045;-59
2023/04/30 05:00:10;;;;;;;13.38;8.95;;;;;;;5.71;100.00;102229.84;5031618;28;20049;-59
2023/04/30 05:02:39;;;;;;;14.98;9.35;;;;;;;5.70;100.00;102230.72;5031013;28;20128;-58
2023/04/30 05:05:09;;;;;;;14.90;9.45;;;;;;;5.67;100.00;102229.06;5030251;28;20586;-58
2023/04/30 05:07:37;;;;;;;14.85;9.00;;;;;;;5.68;100.00;102232.53;5031616;28;20041;-58
2023/04/30 05:10:07;;;;;;;15.02;8.88;;;;;;;5.70;100.00;102229.00;5031725;28;20508;-59
2023/04/30 05:12:35;;;;;;;15.18;9.88;;;;;;;5.67;100.00;102236.91;5031396;28;20475;-59
2023/04/30 05:15:03;;;;;;;14.25;9.35;;;;;;;5.66;100.00;102242.13;5020237;28;20045;-59
2023/04/30 05:17:31;;;;;;;17.02;9.18;;;;;;;5.65;100.00;102230.84;5030937;28;20540;-58
2023/04/30 05:20:00;;;;;;;15.10;9.32;;;;;;;5.64;100.00;102243.94;5030082;28;20386;-59
2023/04/30 05:22:29;;;;;;;15.27;9.40;;;;;;;5.67;100.00;102246.47;5032124;28;20108;-58
2023/04/30 05:24:57;;;;;;;16.25;9.80;;;;;;;5.67;100.00;102234.28;5021386;28;20049;-58
2023/04/30 05:27:28;;;;;;;15.65;9.80;;;;;;;5.69;100.00;102237.72;5016232;28;20038;-58
2023/04/30 05:29:56;;;;;;;14.27;9.20;;;;;;;5.74;100.00;102235.03;5011373;28;20045;-58
2023/04/30 05:32:24;;;;;;;16.20;9.82;;;;;;;5.79;100.00;102240.97;5028735;28;20050;-58
2023/04/30 05:34:53;;;;;;;21.77;9.98;;;;;;;5.82;100.00;102238.31;5030875;28;20055;-58
2023/04/30 05:37:21;;;;;;;16.48;10.18;;;;;;;5.85;100.00;102238.22;5030837;28;20049;-58
2023/04/30 05:39:52;;;;;;;15.45;9.85;;;;;;;5.92;100.00;102239.78;5030844;28;20128;-58
2023/04/30 05:42:21;;;;;;;16.95;9.48;;;;;;;5.98;100.00;102237.97;5028792;28;20053;-58
2023/04/30 05:44:49;;;;;;;16.33;10.23;;;;;;;6.01;100.00;102244.00;5030988;28;20404;-58
2023/04/30 05:47:17;;;;;;;16.80;10.60;;;;;;;6.12;100.00;102235.88;5031026;28;20088;-58
2023/04/30 05:49:45;;;;;;;15.38;10.40;;;;;;;6.16;100.00;102242.78;5030563;28;20073;-58
2023/04/30 05:52:14;;;;;;;16.38;10.40;;;;;;;6.20;100.00;102239.19;5029319;28;20053;-58
2023/04/30 05:54:42;;;;;;;18.52;11.02;;;;;;;6.25;100.00;102242.53;5030853;28;20065;-58
2023/04/30 05:57:12;;;;;;;19.13;10.07;;;;;;;6.33;100.00;102237.13;5030627;28;20084;-58
2023/04/30 05:59:43;;;;;;;19.05;10.45;;;;;;;6.42;100.00;102241.25;5030582;28;20073;-58
2023/04/30 06:02:11;;;;;;;16.65;9.82;;;;;;;6.51;100.00;102243.63;5028406;28;20058;-58
2023/04/30 06:04:39;;;;;;;16.15;10.25;;;;;;;6.57;100.00;102237.38;5012115;28;20446;-58
2023/04/30 06:07:07;;;;;;;16.33;10.98;;;;;;;6.63;100.00;102239.84;5013076;28;20050;-59
2023/04/30 06:09:35;;;;;;;15.80;9.75;;;;;;;6.70;100.00;102244.00;5013345;28;20054;-58
2023/04/30 06:12:05;;;;;;;16.48;9.90;;;;;;;6.89;100.00;102233.91;5020062;28;20041;-59
2023/04/30 06:14:35;;;;;;;17.60;11.00;;;;;;;6.96;100.00;102239.81;5015556;28;20126;-58
2023/04/30 06:17:05;;;;;;;14.63;10.00;;;;;;;7.04;100.00;102242.25;5014344;28;20821;-58
2023/04/30 06:19:33;;;;;;;15.52;9.98;;;;;;;7.15;100.00;102250.63;5014717;28;20104;-58
2023/04/30 06:22:10;;;;;;;15.38;9.93;;;;;;;7.28;100.00;102259.00;5019700;28;20508;-59
2023/04/30 06:24:38;;;;;;;16.52;9.65;;;;;;;7.39;100.00;102253.44;5025627;28;20107;-59
2023/04/30 06:27:06;;;;;;;14.80;9.50;;;;;;;7.45;100.00;102263.75;5035070;28;20076;-59
2023/04/30 06:29:36;;;;;;;16.08;10.10;;;;;;;7.58;100.00;102264.22;5035032;28;20057;-58
2023/04/30 06:32:04;;;;;;;14.02;9.32;;;;;;;7.70;100.00;102263.00;5032252;28;20070;-59
2023/04/30 06:34:35;;;;;;;13.98;9.35;;;;;;;7.79;100.00;102274.06;5019213;28;20061;-59
2023/04/30 06:37:03;;;;;;;14.55;9.32;;;;;;;8.05;100.00;102272.38;5014318;28;20046;-58
2023/04/30 06:39:31;;;;;;;15.60;10.25;;;;;;;8.07;100.00;102261.84;5015425;28;20037;-58
2023/04/30 06:42:02;;;;;;;14.65;9.35;;;;;;;8.18;100.00;102259.75;5014535;28;20453;-58
2023/04/30 06:44:30;;;;;;;13.60;9.02;;;;;;;8.30;100.00;102261.09;5031715;28;20148;-59
2023/04/30 06:47:02;;;;;;;15.15;8.98;;;;;;;8.37;100.00;102257.38;5032497;28;20069;-59
2023/04/30 06:49:33;;;;;;;18.98;9.10;;;;;;;8.51;100.00;102254.34;5033735;28;20564;-59
2023/04/30 06:52:02;;;;;;;15.85;9.43;;;;;;;8.67;100.00;102248.56;5033573;28;20408;-59
2023/04/30 06:54:30;;;;;;;14.48;7.70;;;;;;;8.89;100.00;102259.13;5033998;28;20056;-60
2023/04/30 06:56:58;;;;;;;13.65;7.70;;;;;;;8.99;100.00;102264.94;5031187;28;20077;-59
2023/04/30 06:59:27;;;;;;;12.02;7.78;;;;;;;9.08;100.00;102264.59;5029208;28;20528;-59
2023/04/30 07:01:55;;;;;;;14.15;7.65;;;;;;;9.29;100.00;102263.81;5034359;28;20037;-59
2023/04/30 07:04:25;;;;;;;13.85;7.45;;;;;;;9.38;100.00;102265.25;5033973;28;20144;-59
2023/04/30 07:06:56;;;;;;;13.95;7.75;;;;;;;9.51;100.00;102270.88;5032987;28;20045;-59
2023/04/30 07:09:24;;;;;;;11.85;7.20;;;;;;;9.67;100.00;102262.41;5026448;28;20111;-59
2023/04/30 07:11:52;;;;;;;13.65;7.68;;;;;;;9.87;100.00;102262.50;5035320;28;20061;-60
2023/04/30 07:14:21;;;;;;;11.77;7.70;;;;;;;10.05;100.00;102266.16;5034960;28;20096;-53
2023/04/30 07:16:50;;;;;;;11.85;7.45;;;;;;;10.12;100.00;102261.50;5031536;28;20136;-53
2023/04/30 07:19:18;;;;;;;12.65;7.28;;;;;;;10.32;100.00;102266.81;5023374;28;20065;-54
2023/04/30 07:21:48;;;;;;;13.38;8.00;;;;;;;10.48;100.00;102268.81;5014648;28;20080;-54
2023/04/30 07:24:18;;;;;;;13.68;7.85;;;;;;;10.60;100.00;102267.44;5015238;28;20125;-60
2023/04/30 07:26:46;;;;;;;12.15;6.57;;;;;;;10.63;100.00;102262.94;5013256;28;20514;-60
2023/04/30 07:29:18;;;;;;;11.95;6.68;;;;;;;10.72;100.00;102269.56;5028147;28;20068;-60
2023/04/30 07:31:46;;;;;;;10.85;6.90;;;;;;;10.86;100.00;102274.22;5019911;28;20061;-60
2023/04/30 07:34:14;;;;;;;14.00;7.25;;;;;;;10.94;100.00;102280.00;5034154;28;20053;-60
2023/04/30 07:36:42;;;;;;;13.38;7.03;;;;;;;11.14;100.00;102271.22;5033674;28;20045;-61
2023/04/30 07:39:12;;;;;;;13.00;6.68;;;;;;;11.33;100.00;102279.16;5030327;28;20060;-61
2023/04/30 07:41:40;;;;;;;10.18;6.15;;;;;;;11.40;100.00;102278.84;5014618;28;20139;-60
2023/04/30 07:44:10;;;;;;;14.00;6.10;;;;;;;11.59;100.00;102284.13;5014843;28;20050;-61
2023/04/30 07:46:38;;;;;;;10.40;6.80;;;;;;;11.74;100.00;102280.78;5014252;28;20058;-60
2023/04/30 07:49:06;;;;;;;11.15;6.20;;;;;;;11.83;100.00;102282.13;5013643;28;20145;-61
2023/04/30 07:51:34;;;;;;;12.00;6.68;;;;;;;11.96;100.00;102275.38;5014704;28;20116;-61
2023/04/30 07:54:03;;;;;;;10.82;6.20;;;;;;;12.08;100.00;102276.56;5015029;28;20141;-61
2023/04/30 07:56:32;;;;;;;10.48;5.93;;;;;;;12.25;100.00;102274.88;5013480;28;20123;-62
2023/04/30 07:59:00;;;;;;;12.90;6.10;;;;;;;12.33;100.00;102284.09;5030238;28;20056;-61
2023/04/30 08:01:31;;;;;;;9.90;6.03;;;;;;;12.46;100.00;102281.72;5014495;28;20516;-61
2023/04/30 08:04:02;;;;;;;10.10;6.00;;;;;;;12.60;100.00;102285.47;5013902;28;20447;-61
2023/04/30 08:06:30;;;;;;;10.65;5.75;;;;;;;12.80;100.00;102281.78;5012540;28;20108;-61
2023/04/30 08:08:58;;;;;;;10.82;5.90;;;;;;;13.01;100.00;102280.66;5011412;28;20034;-61
2023/04/30 08:11:27;;;;;;;10.80;5.97;;;;;;;13.15;100.00;102284.38;5037484;28;20504;-61
2023/04/30 08:13:56;;;;;;;10.23;5.72;;;;;;;13.28;100.00;102279.25;5026273;28;20054;-60
2023/04/30 08:16:24;;;;;;;11.45;6.00;;;;;;;13.37;100.00;102285.88;5018457;28;20038;-61
2023/04/30 08:18:52;;;;;;;12.35;5.97;;;;;;;13.56;100.00;102291.88;5024767;28;20111;-61
2023/04/30 08:21:21;;;;;;;9.70;5.60;;;;;;;13.68;100.00;102285.91;5033013;28;20080;-61
2023/04/30 08:23:51;;;;;;;11.05;5.35;;;;;;;13.99;100.00;102286.84;5030270;28;20041;-61
2023/04/30 08:26:19;;;;;;;9.80;5.40;;;;;;;14.18;100.00;102284.00;5032000;28;20092;-60
2023/04/30 08:28:47;;;;;;;11.90;5.72;;;;;;;14.32;100.00;102277.03;5030407;28;20103;-60
2023/04/30 08:31:17;;;;;;;13.20;6.20;;;;;;;14.45;100.00;102267.44;5031667;28;20531;-61
2023/04/30 08:33:45;;;;;;;10.82;5.90;;;;;;;14.43;100.00;102277.25;5033276;28;20053;-60
2023/04/30 08:36:14;;;;;;;10.90;5.90;;;;;;;14.57;100.00;102278.25;5032905;28;20124;-60
2023/04/30 08:38:42;;;;;;;9.60;5.30;;;;;;;14.88;100.00;102278.13;5032135;28;20123;-61
2023/04/30 08:41:13;;;;;;;12.52;6.60;;;;;;;14.96;100.00;102275.03;5019323;28;20095;-61
2023/04/30 08:43:43;;;;;;;9.95;5.88;;;;;;;14.90;100.00;102279.84;5017277;28;20592;-62
2023/04/30 08:46:13;;;;;;;10.52;6.18;;;;;;;15.09;100.00;102284.88;5016906;28;20093;-61
2023/04/30 08:48:42;;;;;;;10.27;5.55;;;;;;;15.43;100.00;102283.59;5020484;28;20085;-62
2023/04/30 08:51:11;;;;;;;12.45;6.07;;;;;;;15.41;100.00;102280.22;5017272;28;20049;-61
2023/04/30 08:53:41;;;;;;;10.88;5.20;;;;;;;15.60;100.00;102268.41;5022749;28;20073;-62
2023/04/30 08:56:11;;;;;;;10.13;5.03;;;;;;;15.76;100.00;102274.47;5018966;28;20073;-62
2023/04/30 08:58:40;;;;;;;11.32;6.00;;;;;;;15.61;100.00;102265.69;5017195;28;20509;-61
2023/04/30 09:01:11;;;;;;;12.75;6.43;;;;;;;15.86;100.00;102264.16;5020119;28;20050;-60
2023/04/30 09:03:43;;;;;;;10.25;6.18;;;;;;;15.97;100.00;102266.09;5014807;28;20381;-60
2023/04/30 09:06:15;;;;;;;10.15;5.35;;;;;;;15.91;100.00;102271.78;5013151;28;20061;-61
2023/04/30 09:08:45;;;;;;;9.43;6.20;;;;;;;15.92;100.00;102263.72;5019444;28;20077;-61
2023/04/30 09:11:23;;;;;;;;;;;;;;;16.08;100.00;102260.91;5027873;28;20040;-61
2023/04/30 09:13:52;;;;;;;9.60;5.15;;;;;;;16.31;100.00;102259.38;5020593;28;19952;-62
2023/04/30 09:16:21;;;;;;;9.50;5.00;;;;;;;16.16;100.00;102263.06;5030294;28;20065;-61
2023/04/30 09:18:52;;;;;;;9.15;5.50;;;;;;;16.24;100.00;102263.41;5030309;28;20073;-60
2023/04/30 09:21:32;;;;;;;8.82;4.93;;;;;;;16.38;100.00;102258.00;5021963;28;20116;-61
2023/04/30 09:24:02;;;;;;;10.43;5.38;;;;;;;16.68;100.00;102264.84;5011758;28;20056;-62
2023/04/30 09:26:35;;;;;;;8.00;4.95;;;;;;;16.75;100.00;102251.16;5013668;28;20390;-62
2023/04/30 09:29:06;;;;;;;10.63;4.65;;;;;;;17.02;100.00;102251.06;5015240;28;20863;-62
2023/04/30 09:31:35;;;;;;;9.05;4.88;;;;;;;17.09;99.08;102247.00;5020321;28;20049;-61
2023/04/30 09:34:06;;;;;;;8.40;4.50;;;;;;;17.16;97.34;102252.75;5021128;28;20050;-61
2023/04/30 09:36:36;;;;;;;;;;;;;;;17.27;96.90;102250.16;5030789;28;20041;-61
2023/04/30 09:39:10;;;;;;;10.48;5.53;;;;;;;17.15;97.45;102246.59;5023089;28;19984;-60
2023/04/30 09:41:42;;;;;;;8.73;5.43;;;;;;;17.35;100.00;102254.94;5029420;28;20053;-61
2023/04/30 09:44:28;;;;;;;8.40;5.03;;;;;;;17.53;93.88;102248.31;5034003;28;20768;-63
2023/04/30 09:46:57;;;;;;;8.15;4.53;;;;;;;17.31;90.81;102242.81;5035821;28;20115;-61
2023/04/30 09:49:27;;;;;;;8.35;4.38;;;;;;;17.54;91.73;102251.81;5035946;28;20037;-61
2023/04/30 09:51:56;;;;;;;9.07;4.28;;;;;;;17.83;90.86;102248.81;5035707;28;20492;-61
2023/04/30 09:54:30;;;;;;;10.32;4.55;;;;;;;17.95;87.12;102242.59;5035549;28;20056;-61
2023/04/30 09:57:00;;;;;;;8.80;4.47;;;;;;;18.05;85.14;102238.31;5042833;28;20073;-61
2023/04/30 09:59:30;;;;;;;7.47;4.30;;;;;;;18.08;84.37;102235.41;5021165;28;20046;-61
2023/04/30 10:02:00;;;;;;;8.45;4.32;;;;;;;18.16;85.99;102234.84;5024322;28;20037;-60
2023/04/30 10:04:33;;;;;;;9.57;5.00;;;;;;;18.16;85.05;102231.31;5034083;28;20103;-61
2023/04/30 10:07:03;;;;;;;9.57;5.28;;;;;;;18.28;84.71;102229.53;5027395;28;20046;-61
2023/04/30 10:09:39;;;;;;;8.35;4.55;;;;;;;18.55;85.25;102222.06;5035656;28;20049;-61
2023/04/30 10:12:13;;;;;;;7.53;3.67;;;;;;;18.79;83.38;102222.94;5034850;28;20049;-61
2023/04/30 10:14:48;;;;;;;7.82;4.00;;;;;;;18.95;81.54;102218.16;5035511;28;20053;-62
2023/04/30 10:17:17;;;;;;;6.72;3.83;;;;;;;19.04;80.12;102211.25;5036529;28;20053;-61
2023/04/30 10:19:51;;;;;;;8.98;3.47;;;;;;;19.50;74.96;102214.69;5036026;28;20103;-62
2023/04/30 10:22:20;;;;;;;6.82;3.70;;;;;;;19.27;73.39;102209.38;5034843;28;20076;-62
2023/04/30 10:24:50;;;;;;;6.57;3.80;;;;;;;19.13;75.57;102204.31;5029633;28;20046;-62
2023/04/30 10:27:20;;;;;;;6.88;3.65;;;;;;;19.51;75.82;102205.69;5033832;28;20053;-62
2023/04/30 10:29:50;;;;;;;6.93;3.75;;;;;;;19.55;77.15;102199.13;5026683;28;20076;-62
2023/04/30 10:32:19;;;;;;;6.90;3.85;;;;;;;19.72;74.56;102205.75;5032262;28;20103;-62
2023/04/30 10:35:00;;;;;;;8.10;4.03;;;;;;;19.63;72.54;102215.34;5024142;28;20054;-62
2023/04/30 10:37:34;;;;;;;7.70;3.60;;;;;;;19.98;72.52;102200.94;5024915;28;20053;-61
2023/04/30 10:40:04;;;;;;;6.20;3.25;;;;;;;20.18;71.34;102198.38;5033895;28;20054;-61
2023/04/30 10:42:35;;;;;;;6.30;3.40;;;;;;;19.68;70.18;102202.47;5034808;28;20069;-63
2023/04/30 10:45:03;;;;;;;6.78;3.63;;;;;;;19.95;67.81;102198.53;5034727;28;20054;-63
2023/04/30 10:47:31;;;;;;;5.65;3.28;;;;;;;20.26;69.26;102185.25;5033601;28;20076;-62
2023/04/30 10:50:04;;;;;;;6.25;3.20;;;;;;;20.35;66.41;102187.13;5034193;28;20088;-63
2023/04/30 10:52:32;;;;;;;;;;;;;;;20.62;66.48;102185.72;5015768;28;20046;-55
2023/04/30 10:55:06;;;;;;;14.18;4.63;;;;;;;20.37;67.13;102185.16;5017614;28;19973;-62
2023/04/30 10:57:41;;;;;;;7.70;3.60;;;;;;;20.53;66.18;102181.16;5035087;28;20060;-63
2023/04/30 11:00:20;;;;;;;5.65;3.40;;;;;;;20.88;66.17;102179.94;5032113;28;20045;-61
2023/04/30 11:02:48;;;;;;;7.53;3.60;;;;;;;21.06;66.44;102172.94;5042119;28;20061;-62
2023/04/30 11:05:19;;;;;;;5.57;3.30;;;;;;;21.10;65.80;102174.41;5016239;28;20057;-56
2023/04/30 11:07:49;;;;;;;8.20;4.10;;;;;;;21.36;65.63;102163.16;5021249;28;20090;-58
2023/04/30 11:10:21;;;;;;;8.40;4.38;;;;;;;21.22;64.73;102167.06;5020225;28;20077;-57
2023/04/30 11:12:51;;;;;;;8.00;3.70;;;;;;;21.19;64.89;102155.81;5019447;28;20500;-63
2023/04/30 11:15:22;;;;;;;9.30;4.10;;;;;;;20.87;66.99;102156.84;5034944;28;20057;-63
2023/04/30 11:17:51;;;;;;;7.10;3.85;;;;;;;21.17;66.10;102157.78;5034719;28;20053;-62
2023/04/30 11:20:24;;;;;;;7.93;3.70;;;;;;;21.06;65.19;102159.56;5034559;28;20045;-62
2023/04/30 11:23:13;;;;;;;8.27;4.20;;;;;;;20.98;65.23;102151.38;5035091;28;20057;-62
2023/04/30 11:25:56;;;;;;;7.65;3.80;;;;;;;21.00;64.46;102159.31;5033870;28;20519;-63
2023/04/30 11:28:26;;;;;;;6.50;4.00;;;;;;;20.95;64.39;102154.34;5034539;28;20485;-62
2023/04/30 11:30:55;;;;;;;7.07;3.65;;;;;;;21.18;63.95;102148.78;5034269;28;20037;-63